createdAt,value
2018-04-27T00:00:09.168Z,77.00
2018-04-27T00:02:36.696Z,76.90
2018-04-27T00:05:04.314Z,77.20
2018-04-27T00:07:31.823Z,77.60
2018-04-27T00:09:59.362Z,77.60
2018-04-27T00:12:26.886Z,77.40
2018-04-27T00:14:54.408Z,77.40
2018-04-27T00:17:21.922Z,77.40
2018-04-27T00:19:49.483Z,77.00
2018-04-27T00:22:17.034Z,76.90
2018-04-27T00:24:45.512Z,77.20
2018-04-27T00:27:14.618Z,77.40
2018-04-27T00:29:42.926Z,77.30
2018-04-27T00:32:10.891Z,77.30
2018-04-27T00:34:38.435Z,77.30
2018-04-27T00:37:05.957Z,77.60
2018-04-27T00:39:33.529Z,77.70
2018-04-27T00:42:01.049Z,77.60
2018-04-27T00:44:29.345Z,78.90
2018-04-27T00:46:56.864Z,78.10
2018-04-27T00:49:24.400Z,77.90
2018-04-27T00:51:52.638Z,78.40
2018-04-27T00:54:20.930Z,78.50
2018-04-27T00:56:49.244Z,78.60
2018-04-27T00:59:17.556Z,78.60
2018-04-27T01:01:45.084Z,78.50
2018-04-27T01:04:12.612Z,78.10
2018-04-27T01:06:40.132Z,78.40
2018-04-27T01:09:07.663Z,78.80
2018-04-27T01:11:35.967Z,79.80
2018-04-27T01:14:04.296Z,80.80
2018-04-27T01:16:31.821Z,80.00
2018-04-27T01:18:59.341Z,79.80
2018-04-27T01:21:26.858Z,79.90
2018-04-27T01:23:54.417Z,79.70
2018-04-27T01:26:22.716Z,80.20
2018-04-27T01:28:51.015Z,80.90
2018-04-27T01:31:18.549Z,80.80
2018-04-27T01:33:46.147Z,80.90
2018-04-27T01:36:13.681Z,80.70
2018-04-27T01:38:41.211Z,81.10
2018-04-27T01:41:08.744Z,81.00
2018-04-27T01:43:36.268Z,80.90
2018-04-27T01:46:04.630Z,80.90
2018-04-27T01:48:32.157Z,80.90
2018-04-27T01:50:59.676Z,80.90
2018-04-27T01:53:27.981Z,82.30
2018-04-27T01:55:55.490Z,81.50
2018-04-27T01:58:23.024Z,81.40
2018-04-27T02:00:50.606Z,81.70
2018-04-27T02:03:18.153Z,81.70
2018-04-27T02:05:45.754Z,81.80
2018-04-27T02:08:13.298Z,81.70
2018-04-27T02:10:41.600Z,81.30
2018-04-27T02:13:09.892Z,81.40
2018-04-27T02:15:38.197Z,81.70
2018-04-27T02:18:07.396Z,81.50
2018-04-27T02:20:34.959Z,81.50
2018-04-27T02:23:02.492Z,82.00
2018-04-27T02:25:30.791Z,82.60
2018-04-27T02:27:59.242Z,82.70
2018-04-27T02:30:26.779Z,82.60
2018-04-27T02:32:55.064Z,83.10
2018-04-27T02:35:23.158Z,83.00
2018-04-27T02:37:50.650Z,84.00
2018-04-27T02:40:18.207Z,83.40
2018-04-27T02:42:45.792Z,83.20
2018-04-27T02:45:17.421Z,83.60
2018-04-27T02:47:45.953Z,83.60
2018-04-27T02:50:13.567Z,82.90
2018-04-27T02:52:41.097Z,83.90
2018-04-27T02:55:08.629Z,85.30
2018-04-27T02:57:36.148Z,85.30
2018-04-27T03:00:04.465Z,85.70
2018-04-27T03:02:31.985Z,85.60
2018-04-27T03:04:59.536Z,85.40
2018-04-27T03:07:27.063Z,84.60
2018-04-27T03:09:54.588Z,84.90
2018-04-27T03:12:22.893Z,85.20
2018-04-27T03:14:51.183Z,86.10
2018-04-27T03:17:19.489Z,86.60
2018-04-27T03:19:47.022Z,86.60
2018-04-27T03:22:15.512Z,87.10
2018-04-27T03:24:43.271Z,86.70
2018-04-27T03:27:11.562Z,86.50
2018-04-27T03:29:39.101Z,86.50
2018-04-27T03:32:06.645Z,86.30
2018-04-27T03:34:34.974Z,86.50
2018-04-27T03:37:02.523Z,86.40
2018-04-27T03:39:30.058Z,86.10
2018-04-27T03:41:57.601Z,86.00
2018-04-27T03:44:26.318Z,85.60
2018-04-27T03:46:53.842Z,86.20
2018-04-27T03:49:21.383Z,85.40
2018-04-27T03:51:49.771Z,85.00
2018-04-27T03:54:17.283Z,84.90
2018-04-27T03:56:45.346Z,83.90
2018-04-27T03:59:12.908Z,84.20
2018-04-27T04:01:52.535Z,85.10
2018-04-27T04:07:26.417Z,85.00
2018-04-27T04:09:53.958Z,85.90
2018-04-27T04:12:21.479Z,85.20
2018-04-27T04:14:54.201Z,85.50
2018-04-27T04:17:21.712Z,85.00
2018-04-27T04:19:49.266Z,85.20
2018-04-27T04:22:16.848Z,85.30
2018-04-27T04:24:44.930Z,85.60
2018-04-27T04:27:12.452Z,88.00
2018-04-27T04:29:46.577Z,87.90
2018-04-27T04:32:14.156Z,88.20
2018-04-27T04:34:47.751Z,88.50
2018-04-27T04:37:16.058Z,89.20
2018-04-27T04:39:44.447Z,89.20
2018-04-27T04:42:12.746Z,89.00
2018-04-27T04:44:41.545Z,89.10
2018-04-27T04:47:09.075Z,89.00
2018-04-27T04:49:40.926Z,86.90
2018-04-27T04:52:08.456Z,86.70
2018-04-27T04:54:35.971Z,86.80
2018-04-27T04:57:03.540Z,86.40
2018-04-27T04:59:31.085Z,87.10
2018-04-27T05:01:59.396Z,85.20
2018-04-27T05:04:26.923Z,85.20
2018-04-27T05:06:55.353Z,84.90
2018-04-27T05:09:22.893Z,85.20
2018-04-27T05:11:50.440Z,85.50
2018-04-27T05:14:18.780Z,84.10
2018-04-27T05:16:46.322Z,84.10
2018-04-27T05:19:14.730Z,83.90
2018-04-27T05:21:42.261Z,83.80
2018-04-27T05:24:09.844Z,82.40
2018-04-27T05:26:38.108Z,83.40
2018-04-27T05:29:05.653Z,83.40
2018-04-27T05:31:33.277Z,83.70
2018-04-27T05:34:00.825Z,83.30
2018-04-27T05:36:28.377Z,82.60
2018-04-27T05:38:55.903Z,82.00
2018-04-27T05:41:24.195Z,80.20
2018-04-27T05:43:51.724Z,80.20
2018-04-27T05:46:19.270Z,79.10
2018-04-27T05:48:46.970Z,78.00
2018-04-27T05:51:14.653Z,77.50
2018-04-27T05:53:42.184Z,77.00
2018-04-27T05:56:09.730Z,76.10
2018-04-27T05:58:37.267Z,73.50
2018-04-27T06:01:04.792Z,69.90
2018-04-27T06:03:44.329Z,66.80
2018-04-27T06:06:11.856Z,66.10
2018-04-27T06:08:39.391Z,62.60
2018-04-27T06:11:06.942Z,57.90
2018-04-27T06:13:34.454Z,54.90
2018-04-27T06:16:02.067Z,54.10
2018-04-27T06:18:29.541Z,53.50
2018-04-27T06:20:57.105Z,54.20
2018-04-27T06:23:24.724Z,54.90
2018-04-27T06:25:52.202Z,55.30
2018-04-27T06:28:19.722Z,55.70
2018-04-27T06:30:48.049Z,55.50
2018-04-27T06:33:15.622Z,55.50
2018-04-27T06:35:43.288Z,55.50
2018-04-27T06:38:10.982Z,55.80
2018-04-27T06:40:38.527Z,55.20
2018-04-27T06:43:06.094Z,52.90
2018-04-27T06:45:33.705Z,52.00
2018-04-27T06:48:02.088Z,47.80
2018-04-27T06:50:30.081Z,47.80
2018-04-27T06:52:57.725Z,46.20
2018-04-27T06:55:25.304Z,45.20
2018-04-27T06:57:53.605Z,44.70
2018-04-27T07:00:21.259Z,44.70
2018-04-27T07:02:49.585Z,42.70
2018-04-27T07:05:17.360Z,42.10
2018-04-27T07:07:45.503Z,41.80
2018-04-27T07:10:13.036Z,41.80
2018-04-27T07:12:41.335Z,42.00
2018-04-27T07:15:09.650Z,41.60
2018-04-27T07:17:37.960Z,40.00
2018-04-27T07:20:05.511Z,40.00
2018-04-27T07:22:33.081Z,39.50
2018-04-27T07:25:00.632Z,39.00
2018-04-27T07:27:28.201Z,38.10
2018-04-27T07:29:55.729Z,38.10
2018-04-27T07:32:23.286Z,36.50
2018-04-27T07:34:50.834Z,36.80
2018-04-27T07:37:19.175Z,35.90
2018-04-27T07:39:46.719Z,35.90
2018-04-27T07:42:15.942Z,35.70
2018-04-27T07:44:44.515Z,35.70
2018-04-27T07:47:12.865Z,37.00
2018-04-27T07:49:40.399Z,36.40
2018-04-27T07:52:07.945Z,37.50
2018-04-27T07:54:35.515Z,35.70
2018-04-27T07:57:03.100Z,35.40
2018-04-27T07:59:30.638Z,35.40
2018-04-27T08:01:58.194Z,34.10
2018-04-27T08:04:25.754Z,34.00
2018-04-27T08:06:53.285Z,32.50
2018-04-27T08:09:20.829Z,34.50
2018-04-27T08:11:48.392Z,32.10
2018-04-27T08:14:16.752Z,35.90
2018-04-27T08:16:44.310Z,35.90
2018-04-27T08:19:11.843Z,36.30
2018-04-27T08:21:39.388Z,38.10
2018-04-27T08:24:06.913Z,35.00
2018-04-27T08:26:34.467Z,35.40
2018-04-27T08:29:01.988Z,34.70
2018-04-27T08:31:30.310Z,36.00
2018-04-27T08:33:58.593Z,35.90
2018-04-27T08:36:27.018Z,36.50
2018-04-27T08:38:55.319Z,34.00
2018-04-27T08:41:22.861Z,34.00
2018-04-27T08:43:50.481Z,34.60
2018-04-27T08:46:17.964Z,35.30
2018-04-27T08:48:46.301Z,33.50
2018-04-27T08:51:14.084Z,33.40
2018-04-27T08:53:41.609Z,33.20
2018-04-27T08:56:09.172Z,34.10
2018-04-27T08:58:36.709Z,34.80
2018-04-27T09:01:05.025Z,33.50
2018-04-27T09:03:32.549Z,33.40
2018-04-27T09:06:00.086Z,34.20
2018-04-27T09:08:28.387Z,33.70
2018-04-27T09:10:56.676Z,35.10
2018-04-27T09:13:24.969Z,33.80
2018-04-27T09:15:52.506Z,33.70
2018-04-27T09:18:20.065Z,34.20
2018-04-27T09:20:47.611Z,31.70
2018-04-27T09:23:16.132Z,34.10
2018-04-27T09:25:45.068Z,33.80
2018-04-27T09:28:12.615Z,33.80
2018-04-27T09:30:40.204Z,35.80
2018-04-27T09:33:07.748Z,33.50
2018-04-27T09:35:35.298Z,33.10
2018-04-27T09:38:03.633Z,32.50
2018-04-27T09:40:31.170Z,32.50
2018-04-27T09:42:58.716Z,31.80
2018-04-27T09:45:26.261Z,32.20
2018-04-27T09:47:53.803Z,31.50
2018-04-27T09:50:21.345Z,31.70
2018-04-27T09:52:48.932Z,32.50
2018-04-27T09:55:16.528Z,30.40
2018-04-27T09:57:44.099Z,29.90
2018-04-27T10:00:11.621Z,29.60
2018-04-27T10:02:39.169Z,30.00
2018-04-27T10:05:07.509Z,28.80
2018-04-27T10:07:35.139Z,29.00
2018-04-27T10:10:02.686Z,29.80
2018-04-27T10:12:30.221Z,28.80
2018-04-27T10:14:57.770Z,30.90
2018-04-27T10:17:25.282Z,30.00
2018-04-27T10:19:52.820Z,29.80
2018-04-27T10:22:20.357Z,29.40
2018-04-27T10:24:47.921Z,28.40
2018-04-27T10:27:15.476Z,29.80
2018-04-27T10:29:43.026Z,27.40
2018-04-27T10:32:10.577Z,29.50
2018-04-27T10:34:38.872Z,28.80
2018-04-27T10:37:07.180Z,28.80
2018-04-27T10:39:35.502Z,28.60
2018-04-27T10:42:03.096Z,28.60
2018-04-27T10:44:30.638Z,30.90
2018-04-27T10:46:58.945Z,29.70
2018-04-27T10:49:27.258Z,29.70
2018-04-27T10:51:54.789Z,29.70
2018-04-27T10:54:22.321Z,29.40
2018-04-27T10:56:49.916Z,30.30
2018-04-27T10:59:17.481Z,30.60
2018-04-27T11:01:45.846Z,30.60
2018-04-27T11:04:14.404Z,31.20
2018-04-27T11:06:41.961Z,31.40
2018-04-27T11:09:09.498Z,30.00
2018-04-27T11:11:37.044Z,31.70
2018-04-27T11:14:04.618Z,31.20
2018-04-27T11:16:32.940Z,32.30
2018-04-27T11:19:00.493Z,31.90
2018-04-27T11:21:28.043Z,31.20
2018-04-27T11:23:55.596Z,30.30
2018-04-27T11:26:23.887Z,32.10
2018-04-27T11:28:52.192Z,32.10
2018-04-27T11:31:19.752Z,32.00
2018-04-27T11:33:47.374Z,32.60
2018-04-27T11:36:15.475Z,33.00
2018-04-27T11:38:43.055Z,33.10
2018-04-27T11:41:10.697Z,31.90
2018-04-27T11:43:38.236Z,33.90
2018-04-27T11:46:06.566Z,33.70
2018-04-27T11:48:34.113Z,33.50
2018-04-27T11:51:01.653Z,33.30
2018-04-27T11:53:29.226Z,33.90
2018-04-27T11:55:56.760Z,33.80
2018-04-27T11:58:24.310Z,33.60
2018-04-27T12:00:51.860Z,33.30
2018-04-27T12:03:19.437Z,32.60
2018-04-27T12:05:47.154Z,33.00
2018-04-27T12:08:15.429Z,33.20
2018-04-27T12:10:43.119Z,33.30
2018-04-27T12:13:10.779Z,32.50
2018-04-27T12:15:38.444Z,33.90
2018-04-27T12:18:06.755Z,33.80
2018-04-27T12:20:35.050Z,33.70
2018-04-27T12:23:03.395Z,32.50
2018-04-27T12:25:30.934Z,32.30
2018-04-27T12:27:59.233Z,33.10
2018-04-27T12:30:27.566Z,33.40
2018-04-27T12:32:55.105Z,33.40
2018-04-27T12:35:22.631Z,34.20
2018-04-27T12:37:50.190Z,32.20
2018-04-27T12:40:18.500Z,31.80
2018-04-27T12:42:46.915Z,32.60
2018-04-27T12:45:14.492Z,32.60
2018-04-27T12:47:42.797Z,32.00
2018-04-27T12:50:10.329Z,32.00
2018-04-27T12:52:37.885Z,32.50
2018-04-27T12:55:05.444Z,33.30
2018-04-27T12:57:33.778Z,31.00
2018-04-27T13:00:01.329Z,31.00
2018-04-27T13:02:29.685Z,32.20
2018-04-27T13:04:57.216Z,32.10
2018-04-27T13:07:25.524Z,31.40
2018-04-27T13:09:53.823Z,32.10
2018-04-27T13:12:22.129Z,31.50
2018-04-27T13:14:49.690Z,31.50
2018-04-27T13:17:17.328Z,32.00
2018-04-27T13:19:45.670Z,32.40
2018-04-27T13:22:13.218Z,31.60
2018-04-27T13:24:40.773Z,31.30
2018-04-27T13:27:08.315Z,31.40
2018-04-27T13:29:35.893Z,31.60
2018-04-27T13:32:03.463Z,32.00
2018-04-27T13:34:31.095Z,31.30
2018-04-27T13:36:58.551Z,31.30
2018-04-27T13:39:26.094Z,30.90
2018-04-27T13:41:53.647Z,29.90
2018-04-27T13:44:21.979Z,30.10
2018-04-27T13:46:49.542Z,30.10
2018-04-27T13:49:17.917Z,30.00
2018-04-27T13:51:45.565Z,30.00
2018-04-27T13:54:13.238Z,29.60
2018-04-27T13:56:40.774Z,29.20
2018-04-27T13:59:08.315Z,28.70
2018-04-27T14:01:35.864Z,29.80
2018-04-27T14:04:03.420Z,30.00
2018-04-27T14:06:30.949Z,29.30
2018-04-27T14:08:58.493Z,29.50
2018-04-27T14:11:26.017Z,29.80
2018-04-27T14:13:53.622Z,30.20
2018-04-27T14:16:21.135Z,29.30
2018-04-27T14:18:48.657Z,29.80
2018-04-27T14:21:17.010Z,29.70
2018-04-27T14:23:44.569Z,29.70
2018-04-27T14:26:12.123Z,30.00
2018-04-27T14:28:40.434Z,29.50
2018-04-27T14:31:08.736Z,29.70
2018-04-27T14:33:37.040Z,29.50
2018-04-27T14:36:04.571Z,29.50
2018-04-27T14:38:32.128Z,29.10
2018-04-27T14:40:59.713Z,29.30
2018-04-27T14:43:27.189Z,29.90
2018-04-27T14:45:54.708Z,31.10
2018-04-27T14:48:22.261Z,29.80
2018-04-27T14:50:49.840Z,30.00
2018-04-27T14:53:17.524Z,29.60
2018-04-27T14:55:45.181Z,29.60
2018-04-27T14:58:13.561Z,29.90
2018-04-27T15:00:41.088Z,29.90
2018-04-27T15:03:09.379Z,29.40
2018-04-27T15:05:37.672Z,28.60
2018-04-27T15:08:05.988Z,28.30
2018-04-27T15:10:33.554Z,28.30
2018-04-27T15:13:01.869Z,28.90
2018-04-27T15:15:30.164Z,30.30
2018-04-27T15:17:57.689Z,29.90
2018-04-27T15:20:25.228Z,29.40
2018-04-27T15:22:52.769Z,29.60
2018-04-27T15:25:20.329Z,31.10
2018-04-27T15:27:47.901Z,29.40
2018-04-27T15:30:15.449Z,29.30
2018-04-27T15:32:42.991Z,29.60
2018-04-27T15:35:10.527Z,29.30
2018-04-27T15:37:38.064Z,29.50
2018-04-27T15:40:05.715Z,30.70
2018-04-27T15:42:34.000Z,30.80
2018-04-27T15:45:01.528Z,30.80
2018-04-27T15:47:29.067Z,30.60
2018-04-27T15:49:56.599Z,30.30
2018-04-27T15:52:24.127Z,31.00
2018-04-27T15:54:51.671Z,31.90
2018-04-27T15:57:19.235Z,32.40
2018-04-27T15:59:47.063Z,32.50
2018-04-27T16:02:14.795Z,31.70
2018-04-27T16:04:42.368Z,31.80
2018-04-27T16:07:09.893Z,32.70
2018-04-27T16:09:37.440Z,31.50
2018-04-27T16:12:04.980Z,31.90
2018-04-27T16:14:32.540Z,31.50
2018-04-27T16:17:00.079Z,31.30
2018-04-27T16:19:27.622Z,31.60
2018-04-27T16:21:55.197Z,32.10
2018-04-27T16:24:22.755Z,32.80
2018-04-27T16:26:51.059Z,32.60
2018-04-27T16:29:19.378Z,32.70
2018-04-27T16:31:46.934Z,32.60
2018-04-27T16:34:14.553Z,33.30
2018-04-27T16:36:42.082Z,33.70
2018-04-27T16:39:09.623Z,34.00
2018-04-27T16:41:37.168Z,34.50
2018-04-27T16:44:04.744Z,34.80
2018-04-27T16:46:33.165Z,35.20
2018-04-27T16:49:00.720Z,35.20
2018-04-27T16:51:28.275Z,35.60
2018-04-27T16:53:55.839Z,35.70
2018-04-27T16:56:23.370Z,35.60
2018-04-27T16:58:50.942Z,35.70
2018-04-27T17:01:18.520Z,35.70
2018-04-27T17:03:46.209Z,35.80
2018-04-27T17:06:13.761Z,35.80
2018-04-27T17:08:41.310Z,35.90
2018-04-27T17:11:08.855Z,36.10
2018-04-27T17:13:36.510Z,36.70
2018-04-27T17:16:04.017Z,36.90
2018-04-27T17:18:31.552Z,36.90
2018-04-27T17:20:59.097Z,37.00
2018-04-27T17:23:26.637Z,37.50
2018-04-27T17:25:54.939Z,38.90
2018-04-27T17:28:23.250Z,38.90
2018-04-27T17:30:50.839Z,38.90
2018-04-27T17:33:19.186Z,38.80
2018-04-27T17:35:46.928Z,38.80
2018-04-27T17:38:14.664Z,39.40
2018-04-27T17:40:42.996Z,37.70
2018-04-27T17:43:10.577Z,37.70
2018-04-27T17:45:38.185Z,37.70
2018-04-27T17:48:05.730Z,37.60
2018-04-27T17:50:33.989Z,37.90
2018-04-27T17:53:01.574Z,37.90
2018-04-27T17:55:29.097Z,37.50
2018-04-27T17:57:56.634Z,35.60
2018-04-27T18:00:24.172Z,35.40
2018-04-27T18:02:51.708Z,35.50
2018-04-27T18:05:19.261Z,34.80
2018-04-27T18:07:46.936Z,35.40
2018-04-27T18:10:14.526Z,35.20
2018-04-27T18:12:42.896Z,36.40
2018-04-27T18:15:11.222Z,36.70
2018-04-27T18:17:38.778Z,36.70
2018-04-27T18:20:06.303Z,36.90
2018-04-27T18:22:33.834Z,36.90
2018-04-27T18:25:01.403Z,36.80
2018-04-27T18:27:28.936Z,37.10
2018-04-27T18:29:56.562Z,37.40
2018-04-27T18:32:24.078Z,37.40
2018-04-27T18:34:52.368Z,36.80
2018-04-27T18:37:19.931Z,36.80
2018-04-27T18:39:47.476Z,37.20
2018-04-27T18:42:15.779Z,37.10
2018-04-27T18:44:43.359Z,37.10
2018-04-27T18:47:10.931Z,37.10
2018-04-27T18:49:38.471Z,37.20
2018-04-27T18:52:06.007Z,37.10
2018-04-27T18:54:33.566Z,37.30
2018-04-27T18:57:01.136Z,37.60
2018-04-27T18:59:28.690Z,37.90
2018-04-27T19:01:56.325Z,37.90
2018-04-27T19:04:24.659Z,38.10
2018-04-27T19:06:52.214Z,38.10
2018-04-27T19:09:19.769Z,38.40
2018-04-27T19:11:47.415Z,38.60
2018-04-27T19:14:15.054Z,38.70
2018-04-27T19:16:42.533Z,39.50
2018-04-27T19:19:10.134Z,39.20
2018-04-27T19:21:38.463Z,39.10
2018-04-27T19:24:06.793Z,39.70
2018-04-27T19:26:34.360Z,39.60
2018-04-27T19:29:02.703Z,39.60
2018-04-27T19:31:30.231Z,39.60
2018-04-27T19:33:57.830Z,40.50
2018-04-27T19:36:25.370Z,40.00
2018-04-27T19:38:52.929Z,40.10
2018-04-27T19:41:20.458Z,40.60
2018-04-27T19:43:48.017Z,40.70
2018-04-27T19:46:15.565Z,40.50
2018-04-27T19:48:43.153Z,40.70
2018-04-27T19:51:10.723Z,40.80
2018-04-27T19:53:38.270Z,40.70
2018-04-27T19:56:05.835Z,40.80
2018-04-27T19:58:33.373Z,41.00
2018-04-27T20:01:00.897Z,41.00
2018-04-27T20:03:28.481Z,41.40
2018-04-27T20:05:56.067Z,41.60
2018-04-27T20:08:23.711Z,41.90
2018-04-27T20:10:51.238Z,42.10
2018-04-27T20:13:19.483Z,42.40
2018-04-27T20:15:55.619Z,42.30
2018-04-27T20:18:28.133Z,42.60
2018-04-27T20:20:59.155Z,43.00
2018-04-27T20:23:32.721Z,42.80
2018-04-27T20:26:01.050Z,43.40
2018-04-27T20:28:29.397Z,43.30
2018-04-27T20:30:56.929Z,43.20
2018-04-27T20:33:24.489Z,43.10
2018-04-27T20:35:53.960Z,43.50
2018-04-27T20:38:23.843Z,43.60
2018-04-27T20:40:51.416Z,43.60
2018-04-27T20:43:24.456Z,43.90
2018-04-27T20:45:52.918Z,44.10
2018-04-27T20:48:24.720Z,44.40
2018-04-27T20:50:52.348Z,44.40
2018-04-27T20:53:22.621Z,44.40
2018-04-27T20:55:50.983Z,44.80
2018-04-27T20:58:18.587Z,45.00
2018-04-27T21:00:56.928Z,45.10
2018-04-27T21:03:24.487Z,45.10
2018-04-27T21:05:52.045Z,45.20
2018-04-27T21:08:19.597Z,45.20
2018-04-27T21:10:47.902Z,45.70
2018-04-27T21:13:15.433Z,45.70
2018-04-27T21:15:42.969Z,45.90
2018-04-27T21:18:20.395Z,46.10
2018-04-27T21:20:47.936Z,46.10
2018-04-27T21:23:16.053Z,46.20
2018-04-27T21:25:50.121Z,46.50
2018-04-27T21:28:17.657Z,46.50
2018-04-27T21:30:45.198Z,46.40
2018-04-27T21:33:13.497Z,46.60
2018-04-27T21:35:47.779Z,46.50
2018-04-27T21:41:37.784Z,46.50
2018-04-27T21:44:06.155Z,46.70
2018-04-27T21:46:33.808Z,46.60
2018-04-27T21:49:02.217Z,47.00
2018-04-27T21:51:34.383Z,47.00
2018-04-27T21:54:06.480Z,47.20
2018-04-27T21:56:34.027Z,47.70
2018-04-27T21:59:02.358Z,48.00
2018-04-27T22:01:29.895Z,47.90
2018-04-27T22:04:07.663Z,48.40
2018-04-27T22:06:35.226Z,48.50
2018-04-27T22:09:06.173Z,48.80
2018-04-27T22:11:45.205Z,49.30
2018-04-27T22:14:19.416Z,49.40
2018-04-27T22:16:52.475Z,49.90
2018-04-27T22:19:20.040Z,49.80
2018-04-27T22:21:47.676Z,49.90
2018-04-27T22:24:15.334Z,50.10
2018-04-27T22:26:45.569Z,50.50
2018-04-27T22:29:31.664Z,50.40
2018-04-27T22:32:00.743Z,50.70
2018-04-27T22:34:31.852Z,50.80
2018-04-27T22:36:59.408Z,51.00
2018-04-27T22:42:30.874Z,51.60
2018-04-27T22:44:59.310Z,51.40
2018-04-27T22:47:36.743Z,51.70
2018-04-27T22:50:05.108Z,51.60
2018-04-27T22:52:32.669Z,51.70
2018-04-27T22:55:00.233Z,51.90
2018-04-27T23:00:32.578Z,51.70
2018-04-27T23:03:00.124Z,51.90
2018-04-27T23:05:35.224Z,51.40
2018-04-27T23:08:04.336Z,51.10
2018-04-27T23:10:38.765Z,51.20
2018-04-27T23:13:06.300Z,51.00
2018-04-27T23:15:44.457Z,51.20
2018-04-27T23:18:16.785Z,51.50
2018-04-27T23:20:46.059Z,52.00
2018-04-27T23:23:13.619Z,52.00
2018-04-27T23:25:42.814Z,52.20
2018-04-27T23:28:10.342Z,52.20
2018-04-27T23:30:37.860Z,52.40
2018-04-27T23:33:05.601Z,52.50
2018-04-27T23:35:33.897Z,52.50
2018-04-27T23:38:02.895Z,52.50
2018-04-27T23:40:30.441Z,52.50
2018-04-27T23:42:57.993Z,52.50
2018-04-27T23:45:25.528Z,52.60
2018-04-27T23:48:00.607Z,52.80
2018-04-27T23:50:28.172Z,53.20
2018-04-27T23:52:55.764Z,52.90
2018-04-27T23:55:23.450Z,53.00
2018-04-27T23:57:50.994Z,53.10
